Time;durP1;ratioP1;P1;durP2;ratioP2;P2;SDS_P1;SDS_P2;PMS_P1;PMS_P2;Temp;Humidity;BMP_temperature;BMP_pressure;BME280_temperature;BME280_humidity;BME280_pressure;Samples;Min_cycle;Max_cycle;Signal;HPM_P1;HPM_P2
2022/05/13 00:01:45;;;;;;;2.17;1.15;;;19.60;53.10;;;;;;10433809;28;20061;-60
2022/05/13 00:06:47;;;;;;;1.23;0.60;;;19.60;53.10;;;;;;10418235;28;20072;-60
2022/05/13 00:11:47;;;;;;;1.58;0.82;;;19.60;53.20;;;;;;10417988;28;20043;-61
2022/05/13 00:16:48;;;;;;;2.70;0.88;;;19.60;53.10;;;;;;10411326;28;20446;-61
2022/05/13 00:21:49;;;;;;;2.42;0.82;;;19.60;53.30;;;;;;10423358;28;20041;-61
2022/05/13 00:26:50;;;;;;;2.08;0.70;;;19.60;53.30;;;;;;10413617;28;20084;-60
2022/05/13 00:31:51;;;;;;;2.08;0.63;;;19.60;53.20;;;;;;10415750;28;20136;-60
2022/05/13 00:36:52;;;;;;;1.10;0.55;;;19.60;53.30;;;;;;10416616;28;20030;-61
2022/05/13 00:41:53;;;;;;;2.58;1.00;;;19.50;53.30;;;;;;10402141;28;20040;-61
2022/05/13 00:46:54;;;;;;;1.40;0.73;;;19.50;53.30;;;;;;10416292;28;20430;-61
2022/05/13 00:51:54;;;;;;;1.75;0.47;;;19.50;53.30;;;;;;10415740;28;20112;-61
2022/05/13 00:56:57;;;;;;;2.08;0.80;;;19.50;53.40;;;;;;10414453;28;20055;-61
2022/05/13 01:01:57;;;;;;;3.58;0.65;;;19.50;54.00;;;;;;10429963;28;20087;-61
2022/05/13 01:07:03;;;;;;;1.58;0.90;;;19.50;53.40;;;;;;10415770;28;20099;-61
2022/05/13 01:12:10;;;;;;;2.20;0.70;;;19.50;53.50;;;;;;10415716;28;20036;-61
2022/05/13 01:22:53;;;;;;;1.00;0.70;;;19.50;53.50;;;;;;10421182;28;20150;-62
2022/05/13 01:28:04;;;;;;;1.67;0.77;;;19.50;53.50;;;;;;10412208;28;20026;-62
2022/05/13 01:33:05;;;;;;;0.60;0.50;;;19.50;53.60;;;;;;10414127;28;20046;-61
2022/05/13 01:38:05;;;;;;;1.73;0.70;;;19.50;53.50;;;;;;10414713;28;20071;-61
2022/05/13 01:43:07;;;;;;;1.00;0.60;;;19.40;53.60;;;;;;10414099;28;20034;-61
2022/05/13 01:48:09;;;;;;;2.15;0.60;;;19.40;53.60;;;;;;10429806;28;20036;-61
2022/05/13 01:53:10;;;;;;;1.48;0.65;;;19.40;53.50;;;;;;10429444;28;20068;-61
2022/05/13 01:58:18;;;;;;;1.77;1.17;;;19.40;53.70;;;;;;10413813;28;20045;-60
2022/05/13 02:08:38;;;;;;;3.42;0.82;;;19.40;53.80;;;;;;10427189;28;20037;-61
2022/05/13 02:13:40;;;;;;;2.88;0.63;;;19.40;53.70;;;;;;10416889;28;20034;-61
2022/05/13 02:18:41;;;;;;;0.93;0.65;;;19.40;53.80;;;;;;10413399;28;20052;-60
2022/05/13 02:23:42;;;;;;;2.72;1.15;;;19.40;53.90;;;;;;10419210;28;20171;-61
2022/05/13 02:28:44;;;;;;;3.53;0.75;;;19.40;53.90;;;;;;10428553;28;20048;-61
2022/05/13 02:33:45;;;;;;;1.65;0.80;;;19.40;53.90;;;;;;10412686;28;20136;-61
2022/05/13 02:38:45;;;;;;;3.47;0.82;;;19.30;54.00;;;;;;10411698;28;20044;-61
2022/05/13 02:43:54;;;;;;;1.00;0.47;;;19.30;54.00;;;;;;10424339;28;20102;-61
2022/05/13 02:48:56;;;;;;;2.40;0.73;;;19.30;54.00;;;;;;10412942;28;20033;-61
2022/05/13 02:53:57;;;;;;;1.23;0.60;;;19.30;54.10;;;;;;10411321;28;20083;-60
2022/05/13 02:58:58;;;;;;;2.22;0.80;;;19.30;54.10;;;;;;10412586;28;20029;-60
2022/05/13 03:03:59;;;;;;;1.45;0.60;;;19.30;54.10;;;;;;10411114;28;20375;-61
2022/05/13 03:09:00;;;;;;;1.70;0.75;;;19.30;54.20;;;;;;10412563;28;20052;-61
2022/05/13 03:14:00;;;;;;;2.00;0.60;;;19.30;54.20;;;;;;10412084;28;20084;-61
2022/05/13 03:19:02;;;;;;;2.67;1.08;;;19.30;54.30;;;;;;10412459;28;20095;-60
2022/05/13 03:24:04;;;;;;;3.08;0.70;;;19.30;54.30;;;;;;10416702;28;20113;-60
2022/05/13 03:29:05;;;;;;;2.08;0.70;;;19.30;54.40;;;;;;10419880;28;20037;-61
2022/05/13 03:34:06;;;;;;;3.78;1.20;;;19.30;54.50;;;;;;10408735;28;20072;-60
2022/05/13 03:39:07;;;;;;;3.10;0.80;;;19.30;54.60;;;;;;10418478;28;20026;-61
2022/05/13 03:44:08;;;;;;;1.92;0.70;;;19.20;54.60;;;;;;10418851;28;20021;-60
2022/05/13 03:49:09;;;;;;;1.45;0.93;;;19.20;54.60;;;;;;10400291;28;20032;-61
2022/05/13 03:54:10;;;;;;;2.22;0.60;;;19.20;54.70;;;;;;10418358;28;20566;-60
2022/05/13 03:59:11;;;;;;;2.85;1.10;;;19.30;54.80;;;;;;10416496;28;20045;-61
2022/05/13 04:04:14;;;;;;;3.60;1.38;;;19.20;54.70;;;;;;10416141;28;20043;-60
2022/05/13 04:09:15;;;;;;;2.75;1.00;;;19.30;54.80;;;;;;10414549;28;20029;-60
2022/05/13 04:19:34;;;;;;;1.70;0.90;;;19.20;54.90;;;;;;10417150;28;20129;-60
2022/05/13 04:24:35;;;;;;;1.88;0.90;;;19.20;55.00;;;;;;10412517;28;20405;-61
2022/05/13 04:29:37;;;;;;;2.15;0.88;;;19.20;55.00;;;;;;10418269;28;20070;-60
2022/05/13 04:34:37;;;;;;;3.40;1.10;;;19.20;55.00;;;;;;10408125;28;20555;-61
2022/05/13 04:39:38;;;;;;;2.38;1.20;;;19.20;55.10;;;;;;10416989;28;20091;-61
2022/05/13 04:44:39;;;;;;;4.97;1.35;;;19.20;55.10;;;;;;10413030;28;20492;-60
2022/05/13 04:49:40;;;;;;;4.10;1.20;;;19.20;55.10;;;;;;10415488;28;20044;-60
2022/05/13 04:54:41;;;;;;;8.48;2.25;;;19.20;55.40;;;;;;10416370;28;20053;-61
2022/05/13 04:59:41;;;;;;;6.68;1.50;;;19.20;55.90;;;;;;10432646;28;20072;-60
2022/05/13 05:04:42;;;;;;;7.63;1.65;;;19.40;55.90;;;;;;10418908;28;20091;-60
2022/05/13 05:09:43;;;;;;;11.93;2.38;;;19.40;56.10;;;;;;10431414;28;20069;-61
2022/05/13 05:14:44;;;;;;;10.38;2.97;;;19.40;57.90;;;;;;10413564;28;20136;-60
2022/05/13 05:19:44;;;;;;;13.32;2.92;;;19.40;57.30;;;;;;10415116;28;20029;-63
2022/05/13 05:24:46;;;;;;;9.65;2.10;;;19.40;57.90;;;;;;10414472;28;20444;-61
2022/05/13 05:29:47;;;;;;;9.70;2.20;;;19.40;57.70;;;;;;10427182;28;20104;-61
2022/05/13 05:34:47;;;;;;;30.98;5.10;;;19.40;57.90;;;;;;10412023;28;20041;-57
2022/05/13 05:39:48;;;;;;;31.13;5.15;;;19.40;57.80;;;;;;10413641;28;20125;-58
2022/05/13 05:44:49;;;;;;;24.05;4.95;;;19.40;58.40;;;;;;10411712;28;20072;-58
2022/05/13 05:49:50;;;;;;;15.57;3.60;;;19.40;58.50;;;;;;10413146;28;20455;-58
2022/05/13 06:00:10;;;;;;;19.73;4.73;;;19.30;57.40;;;;;;10412580;28;20034;-59
2022/05/13 06:05:11;;;;;;;15.02;5.00;;;19.30;58.00;;;;;;10412019;28;20022;-58
2022/05/13 06:10:13;;;;;;;22.35;6.40;;;19.30;58.00;;;;;;10411958;28;20068;-58
2022/05/13 06:15:14;;;;;;;20.05;7.28;;;19.30;57.70;;;;;;10394638;28;20037;-60
2022/05/13 06:20:19;;;;;;;18.85;6.90;;;19.20;58.00;;;;;;10402219;28;20375;-61
2022/05/13 06:25:22;;;;;;;13.93;5.80;;;19.20;57.90;;;;;;10409620;28;20037;-61
2022/05/13 06:30:28;;;;;;;15.98;5.85;;;19.10;57.60;;;;;;10425975;28;20048;-59
2022/05/13 06:35:32;;;;;;;13.32;4.32;;;19.20;57.70;;;;;;10400938;28;20164;-62
2022/05/13 06:40:33;;;;;;;17.20;6.63;;;19.20;57.70;;;;;;10396288;28;20033;-60
2022/05/13 06:45:34;;;;;;;12.95;4.50;;;19.20;57.70;;;;;;10411872;28;20048;-60
2022/05/13 06:50:35;;;;;;;15.25;4.63;;;19.20;57.80;;;;;;10410357;28;20072;-60
2022/05/13 06:55:36;;;;;;;17.13;4.40;;;19.20;58.40;;;;;;10411746;28;20033;-59
2022/05/13 07:00:37;;;;;;;10.80;3.70;;;19.20;57.70;;;;;;10420078;28;20072;-60
2022/05/13 07:05:37;;;;;;;9.80;3.58;;;19.20;58.10;;;;;;10409683;28;20044;-60
2022/05/13 07:10:41;;;;;;;11.40;3.90;;;19.20;58.40;;;;;;10419228;28;20430;-60
2022/05/13 07:15:43;;;;;;;12.27;4.13;;;19.30;58.50;;;;;;10406702;28;20425;-60
2022/05/13 07:20:44;;;;;;;10.80;3.50;;;19.20;58.50;;;;;;10432391;28;20036;-60
2022/05/13 07:25:44;;;;;;;15.75;4.22;;;19.30;58.70;;;;;;10424221;28;20072;-61
2022/05/13 07:30:46;;;;;;;12.90;3.83;;;19.30;58.80;;;;;;10434430;28;20061;-60
2022/05/13 07:35:47;;;;;;;16.00;4.43;;;19.30;58.90;;;;;;10417435;28;20026;-60
2022/05/13 07:46:07;;;;;;;9.82;4.13;;;19.30;59.10;;;;;;10406405;28;20490;-61
2022/05/13 07:51:09;;;;;;;14.50;3.88;;;19.30;59.30;;;;;;10418096;28;20037;-60
2022/05/13 07:56:10;;;;;;;12.15;3.33;;;19.30;59.20;;;;;;10433341;28;20397;-60
2022/05/13 08:01:11;;;;;;;11.90;4.22;;;19.30;59.20;;;;;;10417903;28;20048;-61
2022/05/13 08:06:13;;;;;;;13.30;3.45;;;19.30;59.10;;;;;;10415980;28;20116;-59
2022/05/13 08:11:16;;;;;;;11.27;3.78;;;19.30;59.20;;;;;;10416678;28;20465;-59
2022/05/13 08:16:21;;;;;;;9.85;3.20;;;19.20;59.40;;;;;;10432102;28;20478;-59
2022/05/13 08:21:22;;;;;;;11.00;3.63;;;19.30;59.50;;;;;;10436814;28;20488;-60
2022/05/13 08:26:23;;;;;;;13.05;3.53;;;19.30;59.40;;;;;;10416595;28;20036;-63
2022/05/13 08:31:24;;;;;;;6.88;3.15;;;19.30;59.70;;;;;;10416636;28;20125;-62
2022/05/13 08:36:25;;;;;;;10.07;3.33;;;19.30;59.40;;;;;;10431927;28;20470;-61
2022/05/13 08:42:02;;;;;;;8.40;3.20;;;19.30;59.20;;;;;;10415733;28;20175;-61
2022/05/13 08:47:13;;;;;;;14.82;4.53;;;19.30;59.10;;;;;;10431757;28;20033;-60
2022/05/13 08:58:15;;;;;;;9.90;3.10;;;19.30;58.90;;;;;;10415664;28;20136;-61
2022/05/13 09:03:34;;;;;;;5.57;2.67;;;19.30;58.80;;;;;;10414031;28;20033;-61
2022/05/13 09:08:35;;;;;;;7.00;2.40;;;19.30;58.80;;;;;;10414390;28;20116;-61
2022/05/13 09:14:15;;;;;;;7.57;3.13;;;19.30;58.70;;;;;;10413951;28;20033;-60
2022/05/13 09:19:30;;;;;;;;;;;19.30;58.60;;;;;;10412161;28;20470;-61
2022/05/13 09:24:30;;;;;;;5.25;2.28;;;19.30;58.40;;;;;;10404392;28;20043;-61
2022/05/13 09:29:41;;;;;;;7.10;2.67;;;19.40;58.50;;;;;;10414468;28;20160;-60
2022/05/13 09:35:13;;;;;;;6.68;2.55;;;19.40;58.50;;;;;;10429407;28;20113;-61
2022/05/13 09:40:16;;;;;;;5.72;2.15;;;19.50;58.40;;;;;;10414088;28;20378;-61
2022/05/13 09:45:21;;;;;;;6.78;2.25;;;19.40;58.40;;;;;;10414236;28;20064;-61
2022/05/13 09:50:30;;;;;;;10.60;2.28;;;19.40;58.30;;;;;;10426274;28;20148;-61
2022/05/13 09:55:40;;;;;;;4.57;2.07;;;19.30;58.50;;;;;;10412172;28;20029;-59
2022/05/13 10:00:43;;;;;;;3.92;1.65;;;19.30;58.50;;;;;;10399272;28;20040;-61
2022/05/13 10:05:44;;;;;;;6.28;2.30;;;19.30;58.50;;;;;;10412184;28;20025;-60
2022/05/13 10:16:47;;;;;;;6.03;1.98;;;19.30;58.50;;;;;;10409471;28;20051;-60
2022/05/13 10:21:57;;;;;;;6.72;1.88;;;19.30;58.10;;;;;;10433200;28;20029;-60
2022/05/13 10:27:01;;;;;;;5.80;2.00;;;19.30;57.80;;;;;;10412386;28;20076;-60
2022/05/13 10:32:27;;;;;;;5.50;2.40;;;19.40;57.50;;;;;;10411834;28;20494;-61
2022/05/13 10:38:22;;;;;;;6.22;1.90;;;19.50;57.40;;;;;;10414338;28;20045;-60
2022/05/13 10:43:43;;;;;;;4.07;1.48;;;19.50;57.40;;;;;;10422753;28;20041;-60
2022/05/13 10:48:48;;;;;;;3.47;1.30;;;19.50;57.40;;;;;;10411036;28;20061;-60
2022/05/13 10:54:32;;;;;;;3.50;1.52;;;19.50;57.50;;;;;;10410817;28;20031;-61
2022/05/13 10:59:46;;;;;;;3.38;1.60;;;19.40;57.70;;;;;;10407515;28;20036;-59
2022/05/13 11:05:07;;;;;;;5.10;1.98;;;19.40;57.90;;;;;;10409383;28;20056;-61
2022/05/13 11:10:24;;;;;;;5.40;1.60;;;19.40;57.90;;;;;;10409894;28;20072;-60
2022/05/13 11:15:58;;;;;;;4.20;2.30;;;19.40;58.00;;;;;;10410367;28;21656;-61
2022/05/13 11:21:21;;;;;;;6.00;1.45;;;19.40;57.80;;;;;;10411609;28;20496;-60
2022/05/13 11:26:30;;;;;;;3.10;1.35;;;19.50;58.10;;;;;;10384882;28;20394;-60
2022/05/13 11:31:37;;;;;;;4.63;1.42;;;19.50;57.90;;;;;;10426192;28;20050;-61
2022/05/13 11:37:08;;;;;;;3.70;1.83;;;19.40;57.90;;;;;;10426680;28;20124;-60
2022/05/13 11:48:27;;;;;;;2.75;1.17;;;19.50;57.70;;;;;;10431555;28;20128;-61
2022/05/13 11:53:50;;;;;;;2.50;1.13;;;19.50;57.80;;;;;;10431400;28;20094;-60
2022/05/13 11:58:53;;;;;;;2.72;1.05;;;19.50;57.80;;;;;;10417786;28;20485;-61
2022/05/13 12:04:12;;;;;;;2.75;1.13;;;19.50;57.90;;;;;;10417828;28;20108;-62
2022/05/13 12:09:14;;;;;;;3.00;0.90;;;19.50;58.10;;;;;;10417720;28;20033;-62
2022/05/13 12:14:40;;;;;;;2.45;1.23;;;19.50;58.00;;;;;;10432639;28;20063;-62
2022/05/13 12:20:09;;;;;;;2.85;1.20;;;19.50;58.10;;;;;;10417180;28;20030;-63
2022/05/13 12:25:35;;;;;;;2.42;1.30;;;19.50;58.00;;;;;;10416456;28;20039;-63
2022/05/13 12:30:39;;;;;;;3.60;1.13;;;19.60;58.10;;;;;;10429314;28;20044;-63
2022/05/13 12:41:17;;;;;;;4.07;1.25;;;19.60;57.20;;;;;;10415484;28;20477;-60
2022/05/13 12:46:39;;;;;;;4.63;1.48;;;19.60;56.60;;;;;;10414871;28;20041;-61
2022/05/13 12:52:20;;;;;;;5.40;2.38;;;19.60;55.40;;;;;;10414474;28;20049;-61
2022/05/13 12:57:31;;;;;;;8.85;2.28;;;19.60;54.50;;;;;;10407294;28;20045;-61
2022/05/13 13:02:34;;;;;;;4.63;1.58;;;19.60;54.10;;;;;;10418482;28;20041;-62
2022/05/13 13:07:36;;;;;;;11.60;2.42;;;19.60;53.70;;;;;;10416107;28;20352;-62
2022/05/13 13:13:17;;;;;;;2.97;1.60;;;19.60;53.70;;;;;;10414087;28;20037;-65
2022/05/13 13:18:30;;;;;;;;;;;19.60;53.30;;;;;;10386944;28;20037;-63
2022/05/13 13:23:39;;;;;;;5.85;1.30;;;19.60;53.40;;;;;;10420370;28;20042;-64
2022/05/13 13:28:43;;;;;;;11.18;1.80;;;19.60;53.20;;;;;;10429551;28;20060;-62
2022/05/13 13:33:49;;;;;;;8.48;2.30;;;19.60;53.30;;;;;;10412639;28;20037;-59
2022/05/13 13:38:53;;;;;;;13.68;1.90;;;19.60;53.00;;;;;;10412777;28;20386;-60
2022/05/13 13:43:57;;;;;;;11.32;1.70;;;19.70;53.10;;;;;;10412679;28;20042;-59
2022/05/13 13:49:00;;;;;;;11.75;2.90;;;19.70;53.10;;;;;;10412966;28;20029;-58
2022/05/13 13:54:07;;;;;;;8.88;1.85;;;19.70;53.40;;;;;;10412183;28;20037;-58
2022/05/13 13:59:37;;;;;;;13.45;2.28;;;19.70;52.60;;;;;;10428344;28;20029;-59
2022/05/13 14:04:40;;;;;;;17.63;2.53;;;19.70;52.30;;;;;;10413141;28;20466;-58
2022/05/13 14:09:45;;;;;;;19.20;2.80;;;19.80;52.20;;;;;;10408641;28;20280;-58
2022/05/13 14:14:51;;;;;;;11.85;2.05;;;19.90;52.40;;;;;;10411760;28;20508;-60
2022/05/13 14:20:10;;;;;;;20.83;2.75;;;19.90;52.30;;;;;;10411088;28;20040;-56
2022/05/13 14:25:13;;;;;;;7.87;1.73;;;19.80;52.20;;;;;;10419276;28;20048;-54
2022/05/13 14:30:14;;;;;;;9.45;2.15;;;19.80;52.10;;;;;;10412229;28;20413;-55
2022/05/13 14:35:19;;;;;;;10.07;2.40;;;19.80;52.10;;;;;;10425296;28;20051;-57
2022/05/13 14:40:24;;;;;;;9.63;1.88;;;19.80;52.10;;;;;;10412040;28;20471;-56
2022/05/13 14:45:28;;;;;;;10.40;2.15;;;19.80;52.10;;;;;;10411875;28;20099;-55
2022/05/13 14:50:34;;;;;;;9.63;2.30;;;19.80;51.80;;;;;;10411718;28;20441;-56
2022/05/13 14:55:51;;;;;;;6.53;1.83;;;19.80;51.80;;;;;;10410739;28;20038;-56
2022/05/13 15:01:12;;;;;;;6.18;2.15;;;19.80;51.90;;;;;;10395624;28;20031;-57
2022/05/13 15:06:37;;;;;;;9.63;2.13;;;19.70;52.00;;;;;;10410504;28;20030;-57
2022/05/13 15:11:38;;;;;;;10.60;3.50;;;19.70;52.50;;;;;;10408230;28;20061;-57
2022/05/13 15:16:39;;;;;;;9.52;2.83;;;19.70;52.50;;;;;;10411791;28;20068;-56
2022/05/13 15:21:40;;;;;;;7.45;2.83;;;19.70;52.50;;;;;;10418722;28;20113;-57
2022/05/13 15:26:41;;;;;;;9.38;3.85;;;19.70;52.50;;;;;;10419165;28;20112;-58
2022/05/13 15:31:42;;;;;;;10.25;3.15;;;19.70;53.00;;;;;;10419075;28;20057;-59
2022/05/13 15:36:43;;;;;;;8.43;3.33;;;19.70;52.90;;;;;;10418698;28;20040;-55
2022/05/13 15:41:43;;;;;;;10.27;3.55;;;19.70;54.10;;;;;;10418387;28;20041;-57
2022/05/13 15:46:44;;;;;;;30.15;13.75;;;19.70;53.60;;;;;;10418929;28;20065;-57
2022/05/13 15:57:07;;;;;;;14.52;5.00;;;19.70;54.10;;;;;;10410601;28;20185;-55
2022/05/13 16:02:08;;;;;;;11.25;4.03;;;19.70;54.20;;;;;;10411636;28;20037;-54
2022/05/13 16:07:09;;;;;;;11.00;4.90;;;19.70;56.10;;;;;;10416507;28;20112;-53
2022/05/13 16:12:18;;;;;;;12.13;4.22;;;20.00;56.90;;;;;;10415895;28;20163;-56
2022/05/13 16:17:19;;;;;;;;;;;20.20;56.50;;;;;;10413782;28;20560;-55
2022/05/13 16:22:21;;;;;;;15.43;4.43;;;20.20;57.10;;;;;;10416465;28;20018;-55
2022/05/13 16:27:28;;;;;;;18.27;4.97;;;20.10;56.70;;;;;;10425499;28;20042;-54
2022/05/13 16:32:28;;;;;;;10.82;3.88;;;20.20;56.40;;;;;;10398662;28;20168;-55
2022/05/13 16:37:41;;;;;;;19.00;4.35;;;20.20;57.20;;;;;;10416552;28;20168;-55
2022/05/13 16:42:43;;;;;;;16.92;4.05;;;20.20;57.30;;;;;;10415695;28;20048;-57
2022/05/13 16:47:44;;;;;;;10.23;3.30;;;20.00;57.00;;;;;;10416351;28;20037;-58
2022/05/13 16:52:45;;;;;;;9.77;3.83;;;19.90;57.00;;;;;;10416083;28;20041;-57
2022/05/13 16:57:46;;;;;;;11.57;3.75;;;19.90;57.00;;;;;;10417624;28;20075;-57
2022/05/13 17:02:47;;;;;;;11.88;2.78;;;19.80;56.70;;;;;;10415676;28;20033;-57
2022/05/13 17:07:47;;;;;;;11.55;3.38;;;19.80;56.70;;;;;;10415456;28;20044;-59
2022/05/13 17:18:08;;;;;;;11.45;3.70;;;19.80;56.70;;;;;;10415714;28;20037;-56
2022/05/13 17:23:08;;;;;;;6.50;2.88;;;19.80;56.60;;;;;;10420040;28;20021;-57
2022/05/13 17:28:09;;;;;;;6.47;2.80;;;19.80;56.70;;;;;;10414980;28;20057;-57
2022/05/13 17:33:17;;;;;;;5.28;3.15;;;19.80;56.60;;;;;;10414145;28;20410;-57
2022/05/13 17:38:18;;;;;;;7.50;3.45;;;19.80;56.90;;;;;;10401244;28;20263;-56
2022/05/13 17:43:20;;;;;;;8.00;3.00;;;19.80;56.90;;;;;;10411386;28;20025;-54
2022/05/13 17:48:21;;;;;;;7.38;3.70;;;19.80;57.10;;;;;;10413070;28;20057;-55
2022/05/13 17:53:25;;;;;;;9.65;3.95;;;19.90;58.00;;;;;;10413586;28;20042;-56
2022/05/13 17:58:26;;;;;;;11.60;4.80;;;20.00;57.90;;;;;;10411546;28;20056;-55
2022/05/13 18:03:31;;;;;;;8.88;4.88;;;19.90;58.60;;;;;;10413076;28;20040;-54
2022/05/13 18:08:32;;;;;;;6.63;3.47;;;19.90;58.90;;;;;;10411789;28;20389;-58
2022/05/13 18:13:34;;;;;;;6.15;3.85;;;20.00;60.10;;;;;;10412559;28;20029;-58
2022/05/13 18:18:35;;;;;;;8.85;3.22;;;20.00;59.50;;;;;;10412833;28;20037;-58
2022/05/13 18:23:38;;;;;;;8.82;4.03;;;20.00;59.10;;;;;;10414442;28;20033;-57
2022/05/13 18:28:40;;;;;;;15.25;3.90;;;19.90;59.30;;;;;;10408494;28;20033;-64
2022/05/13 18:33:41;;;;;;;10.10;3.38;;;19.90;59.20;;;;;;10405828;28;20109;-56
2022/05/13 18:38:42;;;;;;;7.38;3.53;;;19.90;58.60;;;;;;10408549;28;20363;-54
2022/05/13 18:49:05;;;;;;;9.45;3.10;;;19.90;58.90;;;;;;10411023;28;20333;-55
2022/05/13 18:54:05;;;;;;;9.32;3.33;;;19.90;59.00;;;;;;10416071;28;20037;-55
2022/05/13 18:59:08;;;;;;;6.63;3.05;;;19.80;58.90;;;;;;10419917;28;20030;-55
2022/05/13 19:04:09;;;;;;;6.18;2.75;;;19.90;58.90;;;;;;10420206;28;20037;-55
2022/05/13 19:09:10;;;;;;;7.65;3.80;;;19.80;58.70;;;;;;10418423;28;20029;-56
2022/05/13 19:14:11;;;;;;;7.45;2.72;;;19.90;58.70;;;;;;10415614;28;20455;-58
2022/05/13 19:19:13;;;;;;;5.80;2.88;;;19.90;58.80;;;;;;10418607;28;20032;-56
2022/05/13 19:24:13;;;;;;;6.93;1.92;;;19.90;58.30;;;;;;10421178;28;20040;-57
2022/05/13 19:29:14;;;;;;;5.38;2.65;;;19.90;58.30;;;;;;10419368;28;20569;-55
2022/05/13 19:34:15;;;;;;;4.47;2.40;;;19.80;58.00;;;;;;10413355;28;20085;-57
2022/05/13 19:39:15;;;;;;;6.53;1.98;;;19.80;58.00;;;;;;10414146;28;20371;-57
2022/05/13 19:44:16;;;;;;;4.10;2.85;;;19.80;57.90;;;;;;10417314;28;20108;-56
2022/05/13 19:49:17;;;;;;;5.10;1.85;;;19.80;58.00;;;;;;10434143;28;20053;-57
2022/05/13 19:54:18;;;;;;;4.25;1.98;;;19.80;58.10;;;;;;10416678;28;20112;-57
2022/05/13 19:59:19;;;;;;;7.25;2.45;;;19.80;58.00;;;;;;10418604;28;20026;-57
2022/05/13 20:04:19;;;;;;;4.38;2.35;;;19.80;58.00;;;;;;10417521;28;20548;-57
2022/05/13 20:14:40;;;;;;;6.55;3.03;;;19.80;58.00;;;;;;10416432;28;20030;-56
2022/05/13 20:25:00;;;;;;;3.53;2.13;;;19.80;57.90;;;;;;10424044;28;20136;-57
2022/05/13 20:30:01;;;;;;;4.10;1.77;;;19.70;57.80;;;;;;10417129;28;20280;-56
2022/05/13 20:35:01;;;;;;;3.85;1.80;;;19.80;57.90;;;;;;10417515;28;20466;-57
2022/05/13 20:40:03;;;;;;;3.58;1.98;;;19.70;57.80;;;;;;10417121;28;20116;-57
2022/05/13 20:45:05;;;;;;;4.30;2.08;;;19.70;57.70;;;;;;10415848;28;20025;-57
2022/05/13 20:50:07;;;;;;;3.40;1.83;;;19.70;57.60;;;;;;10416389;28;20609;-57
2022/05/13 20:55:08;;;;;;;3.20;1.63;;;19.70;57.60;;;;;;10414314;28;20041;-57
2022/05/13 21:00:11;;;;;;;3.08;1.80;;;19.70;57.70;;;;;;10416318;28;20477;-57
2022/05/13 21:05:16;;;;;;;3.83;2.15;;;19.70;57.50;;;;;;10416103;28;20468;-56
2022/05/13 21:10:25;;;;;;;3.30;1.67;;;19.70;57.50;;;;;;10415116;28;20053;-57
2022/05/13 21:15:26;;;;;;;4.22;1.85;;;19.70;57.40;;;;;;10418903;28;20064;-56
2022/05/13 21:20:28;;;;;;;4.93;2.42;;;19.70;57.40;;;;;;10414560;28;20029;-55
2022/05/13 21:25:28;;;;;;;4.10;1.65;;;19.70;57.40;;;;;;10417322;28;20033;-57
2022/05/13 21:30:30;;;;;;;4.05;2.08;;;19.70;57.30;;;;;;10429956;28;20063;-57
2022/05/13 21:40:50;;;;;;;3.50;1.63;;;19.70;57.10;;;;;;10415370;28;20068;-57
2022/05/13 21:45:51;;;;;;;6.00;2.17;;;19.70;57.10;;;;;;10414923;28;20526;-57
2022/05/13 21:50:52;;;;;;;3.72;1.88;;;19.70;57.10;;;;;;10410675;28;20125;-57
2022/05/13 21:55:53;;;;;;;2.97;1.92;;;19.60;56.90;;;;;;10414391;28;20112;-57
2022/05/13 22:00:53;;;;;;;6.05;2.28;;;19.60;56.80;;;;;;10414149;28;20033;-57
2022/05/13 22:05:54;;;;;;;4.55;1.90;;;19.60;56.90;;;;;;10429325;28;20033;-58
2022/05/13 22:10:55;;;;;;;4.93;2.05;;;19.70;56.90;;;;;;10413807;28;20041;-57
2022/05/13 22:15:57;;;;;;;3.28;1.77;;;19.60;56.80;;;;;;10413662;28;20043;-57
2022/05/13 22:20:58;;;;;;;3.20;1.25;;;19.60;56.80;;;;;;10412908;28;20090;-57
2022/05/13 22:25:59;;;;;;;3.38;1.58;;;19.60;56.80;;;;;;10417515;28;20025;-56
2022/05/13 22:30:59;;;;;;;3.00;1.80;;;19.60;56.80;;;;;;10412881;28;20052;-56
2022/05/13 22:36:00;;;;;;;4.53;1.23;;;19.60;56.80;;;;;;10411315;28;20104;-56
2022/05/13 22:41:03;;;;;;;3.55;1.58;;;19.60;56.80;;;;;;10412629;28;20371;-57
2022/05/13 22:46:04;;;;;;;1.92;1.20;;;19.60;56.80;;;;;;10412590;28;20108;-56
2022/05/13 22:51:05;;;;;;;4.35;2.50;;;19.60;56.90;;;;;;10412536;28;20041;-57
2022/05/13 22:56:09;;;;;;;3.28;1.90;;;19.60;56.90;;;;;;10412537;28;20041;-58
2022/05/13 23:01:12;;;;;;;4.90;1.80;;;19.60;57.00;;;;;;10427678;28;20103;-57
2022/05/13 23:11:32;;;;;;;2.92;1.73;;;19.60;57.00;;;;;;10412909;28;20037;-56
2022/05/13 23:16:34;;;;;;;3.40;1.50;;;19.60;57.00;;;;;;10412364;28;20025;-56
2022/05/13 23:21:35;;;;;;;3.47;1.63;;;19.60;57.00;;;;;;10417992;28;20507;-56
2022/05/13 23:26:36;;;;;;;2.95;1.63;;;19.60;57.00;;;;;;10411897;28;20105;-57
2022/05/13 23:31:37;;;;;;;3.35;1.20;;;19.50;56.90;;;;;;10411345;28;20055;-57
2022/05/13 23:36:38;;;;;;;2.90;1.63;;;19.60;57.00;;;;;;10411922;28;20030;-57
2022/05/13 23:41:38;;;;;;;1.67;1.20;;;19.50;57.00;;;;;;10417026;28;20036;-57
2022/05/13 23:46:39;;;;;;;2.88;1.85;;;19.50;57.00;;;;;;10419462;28;20116;-57
2022/05/13 23:51:40;;;;;;;3.30;1.35;;;19.50;57.00;;;;;;10418745;28;20116;-54
2022/05/13 23:56:41;;;;;;;2.40;1.10;;;19.50;57.00;;;;;;10418971;28;20051;-57
